sensor_id;sensor_type;location;lat;lon;timestamp;temperature;humidity
40996;DHT22;26723;57.478;12.066;2022-12-29T00:01:10;5.90;99.90
40996;DHT22;26723;57.478;12.066;2022-12-29T00:04:19;5.90;99.90
40996;DHT22;26723;57.478;12.066;2022-12-29T00:07:29;5.90;99.90
40996;DHT22;26723;57.478;12.066;2022-12-29T00:10:37;5.90;99.90
40996;DHT22;26723;57.478;12.066;2022-12-29T00:13:46;6.00;99.90
40996;DHT22;26723;57.478;12.066;2022-12-29T00:17:15;6.00;99.90
40996;DHT22;26723;57.478;12.066;2022-12-29T00:20:24;6.00;99.90
40996;DHT22;26723;57.478;12.066;2022-12-29T00:23:51;6.00;99.90
40996;DHT22;26723;57.478;12.066;2022-12-29T00:27:17;6.10;99.90
40996;DHT22;26723;57.478;12.066;2022-12-29T00:30:42;6.10;99.90
40996;DHT22;26723;57.478;12.066;2022-12-29T00:34:11;6.10;99.90
40996;DHT22;26723;57.478;12.066;2022-12-29T00:37:40;6.10;99.90
40996;DHT22;26723;57.478;12.066;2022-12-29T00:41:08;6.10;99.90
40996;DHT22;26723;57.478;12.066;2022-12-29T00:44:34;6.00;99.90
40996;DHT22;26723;57.478;12.066;2022-12-29T00:47:42;6.00;99.90
40996;DHT22;26723;57.478;12.066;2022-12-29T00:50:55;6.00;99.90
40996;DHT22;26723;57.478;12.066;2022-12-29T00:54:03;6.00;99.90
40996;DHT22;26723;57.478;12.066;2022-12-29T00:57:13;6.00;99.90
40996;DHT22;26723;57.478;12.066;2022-12-29T01:00:21;6.00;99.90
40996;DHT22;26723;57.478;12.066;2022-12-29T01:03:30;6.00;99.90
40996;DHT22;26723;57.478;12.066;2022-12-29T01:06:39;5.90;99.90
40996;DHT22;26723;57.478;12.066;2022-12-29T01:09:48;5.90;99.90
40996;DHT22;26723;57.478;12.066;2022-12-29T01:13:16;5.90;99.90
40996;DHT22;26723;57.478;12.066;2022-12-29T01:16:25;5.90;99.90
40996;DHT22;26723;57.478;12.066;2022-12-29T01:19:34;5.80;99.90
40996;DHT22;26723;57.478;12.066;2022-12-29T01:22:43;5.80;99.90
40996;DHT22;26723;57.478;12.066;2022-12-29T01:25:51;5.80;99.90
40996;DHT22;26723;57.478;12.066;2022-12-29T01:29:01;5.70;99.90
40996;DHT22;26723;57.478;12.066;2022-12-29T01:32:09;5.70;99.90
40996;DHT22;26723;57.478;12.066;2022-12-29T01:35:18;5.70;99.90
40996;DHT22;26723;57.478;12.066;2022-12-29T01:38:26;5.70;99.90
40996;DHT22;26723;57.478;12.066;2022-12-29T01:41:35;5.60;99.90
40996;DHT22;26723;57.478;12.066;2022-12-29T01:44:53;5.70;99.90
40996;DHT22;26723;57.478;12.066;2022-12-29T01:48:04;5.90;99.90
40996;DHT22;26723;57.478;12.066;2022-12-29T01:51:13;5.90;99.90
40996;DHT22;26723;57.478;12.066;2022-12-29T01:54:26;6.00;99.90
40996;DHT22;26723;57.478;12.066;2022-12-29T01:57:38;6.00;99.90
40996;DHT22;26723;57.478;12.066;2022-12-29T02:00:50;6.00;99.90
40996;DHT22;26723;57.478;12.066;2022-12-29T02:03:58;6.00;99.90
40996;DHT22;26723;57.478;12.066;2022-12-29T02:07:11;6.00;99.90
40996;DHT22;26723;57.478;12.066;2022-12-29T02:10:24;6.10;99.90
40996;DHT22;26723;57.478;12.066;2022-12-29T02:13:35;6.10;99.90
40996;DHT22;26723;57.478;12.066;2022-12-29T02:16:57;6.10;99.90
40996;DHT22;26723;57.478;12.066;2022-12-29T02:20:36;6.20;99.90
40996;DHT22;26723;57.478;12.066;2022-12-29T02:27:58;6.30;99.90
40996;DHT22;26723;57.478;12.066;2022-12-29T02:31:17;6.30;99.90
40996;DHT22;26723;57.478;12.066;2022-12-29T02:34:36;6.30;99.90
40996;DHT22;26723;57.478;12.066;2022-12-29T02:37:59;6.30;99.90
40996;DHT22;26723;57.478;12.066;2022-12-29T02:41:16;6.30;99.90
40996;DHT22;26723;57.478;12.066;2022-12-29T02:44:34;6.30;99.90
40996;DHT22;26723;57.478;12.066;2022-12-29T02:47:51;6.30;99.90
40996;DHT22;26723;57.478;12.066;2022-12-29T02:51:06;6.20;99.90
40996;DHT22;26723;57.478;12.066;2022-12-29T02:54:17;6.30;99.90
40996;DHT22;26723;57.478;12.066;2022-12-29T02:57:45;6.30;99.90
40996;DHT22;26723;57.478;12.066;2022-12-29T03:01:11;6.30;99.90
40996;DHT22;26723;57.478;12.066;2022-12-29T03:04:33;6.40;99.90
40996;DHT22;26723;57.478;12.066;2022-12-29T03:07:54;6.30;99.90
40996;DHT22;26723;57.478;12.066;2022-12-29T03:11:06;6.30;99.90
40996;DHT22;26723;57.478;12.066;2022-12-29T03:14:44;6.40;99.90
40996;DHT22;26723;57.478;12.066;2022-12-29T03:18:15;6.40;99.90
40996;DHT22;26723;57.478;12.066;2022-12-29T03:21:32;6.30;99.90
40996;DHT22;26723;57.478;12.066;2022-12-29T03:25:02;6.40;99.90
40996;DHT22;26723;57.478;12.066;2022-12-29T03:28:13;6.40;99.90
40996;DHT22;26723;57.478;12.066;2022-12-29T03:31:26;6.40;99.90
40996;DHT22;26723;57.478;12.066;2022-12-29T03:34:35;6.40;99.90
40996;DHT22;26723;57.478;12.066;2022-12-29T03:37:51;6.40;99.90
40996;DHT22;26723;57.478;12.066;2022-12-29T03:41:04;6.40;99.90
40996;DHT22;26723;57.478;12.066;2022-12-29T03:44:13;6.50;99.90
40996;DHT22;26723;57.478;12.066;2022-12-29T03:47:24;6.40;99.90
40996;DHT22;26723;57.478;12.066;2022-12-29T03:50:32;6.40;99.90
40996;DHT22;26723;57.478;12.066;2022-12-29T03:53:42;6.40;99.90
40996;DHT22;26723;57.478;12.066;2022-12-29T03:56:51;6.40;99.90
40996;DHT22;26723;57.478;12.066;2022-12-29T04:00:11;6.40;99.90
40996;DHT22;26723;57.478;12.066;2022-12-29T04:03:27;6.40;99.90
40996;DHT22;26723;57.478;12.066;2022-12-29T04:06:36;6.40;99.90
40996;DHT22;26723;57.478;12.066;2022-12-29T04:09:47;6.40;99.90
40996;DHT22;26723;57.478;12.066;2022-12-29T04:13:01;6.40;99.90
40996;DHT22;26723;57.478;12.066;2022-12-29T04:16:10;6.30;99.90
40996;DHT22;26723;57.478;12.066;2022-12-29T04:19:19;6.30;99.90
40996;DHT22;26723;57.478;12.066;2022-12-29T04:22:29;6.20;99.90
40996;DHT22;26723;57.478;12.066;2022-12-29T04:25:39;6.30;99.90
40996;DHT22;26723;57.478;12.066;2022-12-29T04:28:48;6.20;99.90
40996;DHT22;26723;57.478;12.066;2022-12-29T04:32:17;6.30;99.90
40996;DHT22;26723;57.478;12.066;2022-12-29T04:35:29;6.20;99.90
40996;DHT22;26723;57.478;12.066;2022-12-29T04:38:37;6.20;99.90
40996;DHT22;26723;57.478;12.066;2022-12-29T04:41:47;6.30;99.90
40996;DHT22;26723;57.478;12.066;2022-12-29T04:44:59;6.20;99.90
40996;DHT22;26723;57.478;12.066;2022-12-29T04:48:29;6.20;99.90
40996;DHT22;26723;57.478;12.066;2022-12-29T04:51:48;6.20;99.90
40996;DHT22;26723;57.478;12.066;2022-12-29T04:54:57;6.10;99.90
40996;DHT22;26723;57.478;12.066;2022-12-29T04:58:07;6.10;99.90
40996;DHT22;26723;57.478;12.066;2022-12-29T05:01:16;6.20;99.90
40996;DHT22;26723;57.478;12.066;2022-12-29T05:04:26;6.10;99.90
40996;DHT22;26723;57.478;12.066;2022-12-29T05:07:35;6.20;99.90
40996;DHT22;26723;57.478;12.066;2022-12-29T05:10:45;6.20;99.90
40996;DHT22;26723;57.478;12.066;2022-12-29T05:13:55;6.20;99.90
40996;DHT22;26723;57.478;12.066;2022-12-29T05:17:04;6.10;99.90
40996;DHT22;26723;57.478;12.066;2022-12-29T05:20:13;6.10;99.90
40996;DHT22;26723;57.478;12.066;2022-12-29T05:23:22;6.10;99.90
40996;DHT22;26723;57.478;12.066;2022-12-29T05:26:40;6.20;99.90
40996;DHT22;26723;57.478;12.066;2022-12-29T05:30:04;6.10;99.90
40996;DHT22;26723;57.478;12.066;2022-12-29T05:33:13;6.10;99.90
40996;DHT22;26723;57.478;12.066;2022-12-29T05:36:24;6.10;99.90
40996;DHT22;26723;57.478;12.066;2022-12-29T05:39:37;6.10;99.90
40996;DHT22;26723;57.478;12.066;2022-12-29T05:42:47;6.00;99.90
40996;DHT22;26723;57.478;12.066;2022-12-29T05:46:20;6.00;99.90
40996;DHT22;26723;57.478;12.066;2022-12-29T05:49:50;6.10;99.90
40996;DHT22;26723;57.478;12.066;2022-12-29T05:53:18;6.00;99.90
40996;DHT22;26723;57.478;12.066;2022-12-29T05:56:27;6.00;99.90
40996;DHT22;26723;57.478;12.066;2022-12-29T05:59:37;5.90;99.90
40996;DHT22;26723;57.478;12.066;2022-12-29T06:02:47;5.90;99.90
40996;DHT22;26723;57.478;12.066;2022-12-29T06:05:57;5.80;99.90
40996;DHT22;26723;57.478;12.066;2022-12-29T06:09:09;5.80;99.90
40996;DHT22;26723;57.478;12.066;2022-12-29T06:12:17;5.80;99.90
40996;DHT22;26723;57.478;12.066;2022-12-29T06:15:29;5.80;99.90
40996;DHT22;26723;57.478;12.066;2022-12-29T06:18:39;5.80;99.90
40996;DHT22;26723;57.478;12.066;2022-12-29T06:21:48;5.80;99.90
40996;DHT22;26723;57.478;12.066;2022-12-29T06:24:56;5.80;99.90
40996;DHT22;26723;57.478;12.066;2022-12-29T06:28:12;5.80;99.90
40996;DHT22;26723;57.478;12.066;2022-12-29T06:31:21;5.80;99.90
40996;DHT22;26723;57.478;12.066;2022-12-29T06:34:31;5.80;99.90
40996;DHT22;26723;57.478;12.066;2022-12-29T06:37:40;5.80;99.90
40996;DHT22;26723;57.478;12.066;2022-12-29T06:40:48;5.80;99.90
40996;DHT22;26723;57.478;12.066;2022-12-29T06:43:59;5.80;99.90
40996;DHT22;26723;57.478;12.066;2022-12-29T06:47:26;5.80;99.90
40996;DHT22;26723;57.478;12.066;2022-12-29T06:50:36;5.80;99.90
40996;DHT22;26723;57.478;12.066;2022-12-29T06:53:45;5.80;99.90
40996;DHT22;26723;57.478;12.066;2022-12-29T06:56:53;5.90;99.90
40996;DHT22;26723;57.478;12.066;2022-12-29T07:00:02;5.90;99.90
40996;DHT22;26723;57.478;12.066;2022-12-29T07:03:11;5.90;99.90
40996;DHT22;26723;57.478;12.066;2022-12-29T07:06:21;5.90;99.90
40996;DHT22;26723;57.478;12.066;2022-12-29T07:09:30;6.00;99.90
40996;DHT22;26723;57.478;12.066;2022-12-29T07:12:38;5.90;99.90
40996;DHT22;26723;57.478;12.066;2022-12-29T07:15:46;6.00;99.90
40996;DHT22;26723;57.478;12.066;2022-12-29T07:18:55;6.00;99.90
40996;DHT22;26723;57.478;12.066;2022-12-29T07:22:05;6.00;99.90
40996;DHT22;26723;57.478;12.066;2022-12-29T07:25:13;5.90;99.90
40996;DHT22;26723;57.478;12.066;2022-12-29T07:28:23;6.00;99.90
40996;DHT22;26723;57.478;12.066;2022-12-29T07:31:31;6.00;99.90
40996;DHT22;26723;57.478;12.066;2022-12-29T07:34:40;6.10;99.90
40996;DHT22;26723;57.478;12.066;2022-12-29T07:37:50;6.20;99.90
40996;DHT22;26723;57.478;12.066;2022-12-29T07:40:58;6.20;99.90
40996;DHT22;26723;57.478;12.066;2022-12-29T07:44:08;6.30;99.90
40996;DHT22;26723;57.478;12.066;2022-12-29T07:47:36;6.20;99.90
40996;DHT22;26723;57.478;12.066;2022-12-29T07:50:44;6.20;99.90
40996;DHT22;26723;57.478;12.066;2022-12-29T07:53:54;6.20;99.90
40996;DHT22;26723;57.478;12.066;2022-12-29T07:57:03;6.20;99.90
40996;DHT22;26723;57.478;12.066;2022-12-29T08:00:13;6.20;99.90
40996;DHT22;26723;57.478;12.066;2022-12-29T08:03:22;6.10;99.90
40996;DHT22;26723;57.478;12.066;2022-12-29T08:06:32;6.10;99.90
40996;DHT22;26723;57.478;12.066;2022-12-29T08:09:42;6.10;99.90
40996;DHT22;26723;57.478;12.066;2022-12-29T08:12:50;6.20;99.90
40996;DHT22;26723;57.478;12.066;2022-12-29T08:15:59;6.20;99.90
40996;DHT22;26723;57.478;12.066;2022-12-29T08:19:09;6.20;99.90
40996;DHT22;26723;57.478;12.066;2022-12-29T08:22:18;6.20;99.90
40996;DHT22;26723;57.478;12.066;2022-12-29T08:25:28;6.10;99.90
40996;DHT22;26723;57.478;12.066;2022-12-29T08:28:36;6.10;99.90
40996;DHT22;26723;57.478;12.066;2022-12-29T08:31:45;6.10;99.90
40996;DHT22;26723;57.478;12.066;2022-12-29T08:34:54;6.10;99.90
40996;DHT22;26723;57.478;12.066;2022-12-29T08:38:02;6.10;99.90
40996;DHT22;26723;57.478;12.066;2022-12-29T08:41:12;6.00;99.90
40996;DHT22;26723;57.478;12.066;2022-12-29T08:44:21;6.00;99.90
40996;DHT22;26723;57.478;12.066;2022-12-29T08:47:30;6.00;99.90
40996;DHT22;26723;57.478;12.066;2022-12-29T08:50:38;6.00;99.90
40996;DHT22;26723;57.478;12.066;2022-12-29T08:53:47;6.00;99.90
40996;DHT22;26723;57.478;12.066;2022-12-29T08:56:56;6.00;99.90
40996;DHT22;26723;57.478;12.066;2022-12-29T09:00:14;6.10;99.90
40996;DHT22;26723;57.478;12.066;2022-12-29T09:03:24;6.00;99.90
40996;DHT22;26723;57.478;12.066;2022-12-29T09:06:53;6.10;99.90
40996;DHT22;26723;57.478;12.066;2022-12-29T09:10:01;6.00;99.90
40996;DHT22;26723;57.478;12.066;2022-12-29T09:13:13;6.10;99.90
40996;DHT22;26723;57.478;12.066;2022-12-29T09:16:23;6.10;99.90
40996;DHT22;26723;57.478;12.066;2022-12-29T09:19:32;6.00;99.90
40996;DHT22;26723;57.478;12.066;2022-12-29T09:22:40;6.00;99.90
40996;DHT22;26723;57.478;12.066;2022-12-29T09:25:49;6.00;99.90
40996;DHT22;26723;57.478;12.066;2022-12-29T09:28:59;6.00;99.90
40996;DHT22;26723;57.478;12.066;2022-12-29T09:32:07;5.90;99.90
40996;DHT22;26723;57.478;12.066;2022-12-29T09:35:23;5.90;99.90
40996;DHT22;26723;57.478;12.066;2022-12-29T09:38:31;5.90;99.90
40996;DHT22;26723;57.478;12.066;2022-12-29T09:41:43;5.90;99.90
40996;DHT22;26723;57.478;12.066;2022-12-29T09:45:04;5.90;99.90
40996;DHT22;26723;57.478;12.066;2022-12-29T09:48:18;5.90;99.90
40996;DHT22;26723;57.478;12.066;2022-12-29T09:51:28;5.90;99.90
40996;DHT22;26723;57.478;12.066;2022-12-29T09:54:45;6.00;99.90
40996;DHT22;26723;57.478;12.066;2022-12-29T09:58:15;6.00;99.90
40996;DHT22;26723;57.478;12.066;2022-12-29T10:01:31;6.00;99.90
40996;DHT22;26723;57.478;12.066;2022-12-29T10:04:42;6.00;99.90
40996;DHT22;26723;57.478;12.066;2022-12-29T10:07:57;6.10;99.90
40996;DHT22;26723;57.478;12.066;2022-12-29T10:11:16;6.20;99.90
40996;DHT22;26723;57.478;12.066;2022-12-29T10:14:36;6.30;99.90
40996;DHT22;26723;57.478;12.066;2022-12-29T10:17:52;6.30;99.90
40996;DHT22;26723;57.478;12.066;2022-12-29T10:21:07;6.30;99.90
40996;DHT22;26723;57.478;12.066;2022-12-29T10:24:17;6.30;99.90
40996;DHT22;26723;57.478;12.066;2022-12-29T10:27:27;6.30;99.90
40996;DHT22;26723;57.478;12.066;2022-12-29T10:30:36;6.30;99.90
40996;DHT22;26723;57.478;12.066;2022-12-29T10:33:48;6.40;99.90
40996;DHT22;26723;57.478;12.066;2022-12-29T10:37:00;6.30;99.90
40996;DHT22;26723;57.478;12.066;2022-12-29T10:40:19;6.30;99.90
40996;DHT22;26723;57.478;12.066;2022-12-29T10:43:33;6.40;99.90
40996;DHT22;26723;57.478;12.066;2022-12-29T10:46:44;6.40;99.90
40996;DHT22;26723;57.478;12.066;2022-12-29T10:49:57;6.40;99.90
40996;DHT22;26723;57.478;12.066;2022-12-29T10:53:07;6.30;99.90
40996;DHT22;26723;57.478;12.066;2022-12-29T10:56:25;6.40;99.90
40996;DHT22;26723;57.478;12.066;2022-12-29T10:59:36;6.40;99.90
40996;DHT22;26723;57.478;12.066;2022-12-29T11:03:25;6.40;99.90
40996;DHT22;26723;57.478;12.066;2022-12-29T11:06:44;6.30;99.90
40996;DHT22;26723;57.478;12.066;2022-12-29T11:09:53;6.40;99.90
40996;DHT22;26723;57.478;12.066;2022-12-29T11:13:04;6.30;99.90
40996;DHT22;26723;57.478;12.066;2022-12-29T11:16:27;6.30;99.90
40996;DHT22;26723;57.478;12.066;2022-12-29T11:19:37;6.20;99.90
40996;DHT22;26723;57.478;12.066;2022-12-29T11:22:48;6.20;99.90
40996;DHT22;26723;57.478;12.066;2022-12-29T11:26:12;6.30;99.90
40996;DHT22;26723;57.478;12.066;2022-12-29T11:29:24;6.30;99.90
40996;DHT22;26723;57.478;12.066;2022-12-29T11:32:32;6.20;99.90
40996;DHT22;26723;57.478;12.066;2022-12-29T11:35:42;6.20;99.90
40996;DHT22;26723;57.478;12.066;2022-12-29T11:38:54;6.20;99.90
40996;DHT22;26723;57.478;12.066;2022-12-29T11:42:03;6.10;99.90
40996;DHT22;26723;57.478;12.066;2022-12-29T11:45:18;6.10;99.90
40996;DHT22;26723;57.478;12.066;2022-12-29T11:48:29;6.00;99.90
40996;DHT22;26723;57.478;12.066;2022-12-29T11:51:44;6.00;99.90
40996;DHT22;26723;57.478;12.066;2022-12-29T11:54:56;6.00;99.90
40996;DHT22;26723;57.478;12.066;2022-12-29T11:58:05;6.00;99.90
40996;DHT22;26723;57.478;12.066;2022-12-29T12:01:17;6.10;99.90
40996;DHT22;26723;57.478;12.066;2022-12-29T12:04:30;6.00;99.90
40996;DHT22;26723;57.478;12.066;2022-12-29T12:07:42;6.00;99.90
40996;DHT22;26723;57.478;12.066;2022-12-29T12:10:55;5.90;99.90
40996;DHT22;26723;57.478;12.066;2022-12-29T12:14:13;6.00;99.90
40996;DHT22;26723;57.478;12.066;2022-12-29T12:17:51;6.00;99.90
40996;DHT22;26723;57.478;12.066;2022-12-29T12:21:08;6.00;99.90
40996;DHT22;26723;57.478;12.066;2022-12-29T12:24:34;6.20;99.90
40996;DHT22;26723;57.478;12.066;2022-12-29T12:27:52;6.20;99.90
40996;DHT22;26723;57.478;12.066;2022-12-29T12:31:02;6.20;99.90
40996;DHT22;26723;57.478;12.066;2022-12-29T12:34:17;6.10;99.90
40996;DHT22;26723;57.478;12.066;2022-12-29T12:37:47;6.10;99.90
40996;DHT22;26723;57.478;12.066;2022-12-29T12:41:06;6.20;99.90
40996;DHT22;26723;57.478;12.066;2022-12-29T12:44:23;6.20;99.90
40996;DHT22;26723;57.478;12.066;2022-12-29T12:47:48;6.30;99.90
40996;DHT22;26723;57.478;12.066;2022-12-29T12:51:09;6.30;99.90
40996;DHT22;26723;57.478;12.066;2022-12-29T12:54:40;6.30;99.90
40996;DHT22;26723;57.478;12.066;2022-12-29T12:57:57;6.30;99.90
40996;DHT22;26723;57.478;12.066;2022-12-29T13:01:18;6.30;99.90
40996;DHT22;26723;57.478;12.066;2022-12-29T13:08:17;6.40;99.90
40996;DHT22;26723;57.478;12.066;2022-12-29T13:11:42;6.40;99.90
40996;DHT22;26723;57.478;12.066;2022-12-29T13:15:04;6.30;99.90
40996;DHT22;26723;57.478;12.066;2022-12-29T13:18:22;6.40;99.90
40996;DHT22;26723;57.478;12.066;2022-12-29T13:21:46;6.30;99.90
40996;DHT22;26723;57.478;12.066;2022-12-29T13:25:23;6.30;99.90
40996;DHT22;26723;57.478;12.066;2022-12-29T13:28:41;6.20;99.90
40996;DHT22;26723;57.478;12.066;2022-12-29T13:31:56;6.20;99.90
40996;DHT22;26723;57.478;12.066;2022-12-29T13:35:21;6.10;99.90
40996;DHT22;26723;57.478;12.066;2022-12-29T13:38:36;6.10;99.90
40996;DHT22;26723;57.478;12.066;2022-12-29T13:41:48;6.10;99.90
40996;DHT22;26723;57.478;12.066;2022-12-29T13:44:59;6.20;99.90
40996;DHT22;26723;57.478;12.066;2022-12-29T13:48:14;6.20;99.90
40996;DHT22;26723;57.478;12.066;2022-12-29T13:51:25;6.20;99.90
40996;DHT22;26723;57.478;12.066;2022-12-29T13:54:40;6.10;99.90
40996;DHT22;26723;57.478;12.066;2022-12-29T13:57:57;6.20;99.90
40996;DHT22;26723;57.478;12.066;2022-12-29T14:01:11;6.10;99.90
40996;DHT22;26723;57.478;12.066;2022-12-29T14:04:25;6.10;99.90
40996;DHT22;26723;57.478;12.066;2022-12-29T14:07:38;6.10;99.90
40996;DHT22;26723;57.478;12.066;2022-12-29T14:10:48;6.10;99.90
40996;DHT22;26723;57.478;12.066;2022-12-29T14:13:57;6.10;99.90
40996;DHT22;26723;57.478;12.066;2022-12-29T14:17:10;6.10;99.90
40996;DHT22;26723;57.478;12.066;2022-12-29T14:20:22;6.20;99.90
40996;DHT22;26723;57.478;12.066;2022-12-29T14:23:40;6.20;99.90
40996;DHT22;26723;57.478;12.066;2022-12-29T14:26:48;6.20;99.90
40996;DHT22;26723;57.478;12.066;2022-12-29T14:29:57;6.20;99.90
40996;DHT22;26723;57.478;12.066;2022-12-29T14:33:12;6.20;99.90
40996;DHT22;26723;57.478;12.066;2022-12-29T14:36:26;6.40;99.90
40996;DHT22;26723;57.478;12.066;2022-12-29T14:39:43;6.50;99.90
40996;DHT22;26723;57.478;12.066;2022-12-29T14:42:53;6.60;99.90
40996;DHT22;26723;57.478;12.066;2022-12-29T14:46:02;6.70;99.90
40996;DHT22;26723;57.478;12.066;2022-12-29T14:49:19;6.70;99.90
40996;DHT22;26723;57.478;12.066;2022-12-29T14:52:29;6.70;99.90
40996;DHT22;26723;57.478;12.066;2022-12-29T14:55:41;6.80;99.90
40996;DHT22;26723;57.478;12.066;2022-12-29T14:58:54;6.80;99.90
40996;DHT22;26723;57.478;12.066;2022-12-29T15:02:13;6.70;99.90
40996;DHT22;26723;57.478;12.066;2022-12-29T15:05:29;6.70;99.90
40996;DHT22;26723;57.478;12.066;2022-12-29T15:08:44;6.60;99.90
40996;DHT22;26723;57.478;12.066;2022-12-29T15:11:59;6.50;99.90
40996;DHT22;26723;57.478;12.066;2022-12-29T15:15:22;6.50;99.90
40996;DHT22;26723;57.478;12.066;2022-12-29T15:18:32;6.50;99.90
40996;DHT22;26723;57.478;12.066;2022-12-29T15:21:42;6.60;99.90
40996;DHT22;26723;57.478;12.066;2022-12-29T15:24:52;6.60;99.90
40996;DHT22;26723;57.478;12.066;2022-12-29T15:28:04;6.70;99.90
40996;DHT22;26723;57.478;12.066;2022-12-29T15:31:15;6.80;99.90
40996;DHT22;26723;57.478;12.066;2022-12-29T15:34:24;6.80;99.90
40996;DHT22;26723;57.478;12.066;2022-12-29T15:37:34;6.80;99.90
40996;DHT22;26723;57.478;12.066;2022-12-29T15:40:44;6.80;99.90
40996;DHT22;26723;57.478;12.066;2022-12-29T15:44:04;6.80;99.90
40996;DHT22;26723;57.478;12.066;2022-12-29T15:47:16;6.80;99.90
40996;DHT22;26723;57.478;12.066;2022-12-29T15:50:27;6.80;99.90
40996;DHT22;26723;57.478;12.066;2022-12-29T15:53:37;6.80;99.90
40996;DHT22;26723;57.478;12.066;2022-12-29T15:56:46;6.80;99.90
40996;DHT22;26723;57.478;12.066;2022-12-29T15:59:56;6.80;99.90
40996;DHT22;26723;57.478;12.066;2022-12-29T16:03:05;6.80;99.90
40996;DHT22;26723;57.478;12.066;2022-12-29T16:06:29;6.80;99.90
40996;DHT22;26723;57.478;12.066;2022-12-29T16:09:42;6.80;99.90
40996;DHT22;26723;57.478;12.066;2022-12-29T16:12:51;6.90;99.90
40996;DHT22;26723;57.478;12.066;2022-12-29T16:16:06;6.90;99.90
40996;DHT22;26723;57.478;12.066;2022-12-29T16:19:21;6.90;99.90
40996;DHT22;26723;57.478;12.066;2022-12-29T16:22:34;6.90;99.90
40996;DHT22;26723;57.478;12.066;2022-12-29T16:25:43;6.90;99.90
40996;DHT22;26723;57.478;12.066;2022-12-29T16:28:55;7.00;99.90
40996;DHT22;26723;57.478;12.066;2022-12-29T16:32:24;7.00;99.90
40996;DHT22;26723;57.478;12.066;2022-12-29T16:35:39;7.00;99.90
40996;DHT22;26723;57.478;12.066;2022-12-29T16:38:48;7.00;99.90
40996;DHT22;26723;57.478;12.066;2022-12-29T16:41:56;7.10;99.90
40996;DHT22;26723;57.478;12.066;2022-12-29T16:49:14;7.10;99.90
40996;DHT22;26723;57.478;12.066;2022-12-29T16:52:33;7.20;99.90
40996;DHT22;26723;57.478;12.066;2022-12-29T16:55:46;7.20;99.90
40996;DHT22;26723;57.478;12.066;2022-12-29T16:59:02;7.20;99.90
40996;DHT22;26723;57.478;12.066;2022-12-29T17:02:15;7.20;99.90
40996;DHT22;26723;57.478;12.066;2022-12-29T17:05:25;7.20;99.90
40996;DHT22;26723;57.478;12.066;2022-12-29T17:08:40;7.30;99.90
40996;DHT22;26723;57.478;12.066;2022-12-29T17:11:50;7.30;99.90
40996;DHT22;26723;57.478;12.066;2022-12-29T17:15:14;7.20;99.90
40996;DHT22;26723;57.478;12.066;2022-12-29T17:18:23;7.20;99.90
40996;DHT22;26723;57.478;12.066;2022-12-29T17:21:32;7.10;99.90
40996;DHT22;26723;57.478;12.066;2022-12-29T17:24:41;7.10;99.90
40996;DHT22;26723;57.478;12.066;2022-12-29T17:27:52;7.10;99.90
40996;DHT22;26723;57.478;12.066;2022-12-29T17:31:05;7.10;99.90
40996;DHT22;26723;57.478;12.066;2022-12-29T17:34:14;7.10;99.90
40996;DHT22;26723;57.478;12.066;2022-12-29T17:37:35;7.10;99.90
40996;DHT22;26723;57.478;12.066;2022-12-29T17:40:44;7.10;99.90
40996;DHT22;26723;57.478;12.066;2022-12-29T17:43:53;7.10;99.90
40996;DHT22;26723;57.478;12.066;2022-12-29T17:47:01;7.10;99.90
40996;DHT22;26723;57.478;12.066;2022-12-29T17:50:12;7.10;99.90
40996;DHT22;26723;57.478;12.066;2022-12-29T17:53:24;7.10;99.90
40996;DHT22;26723;57.478;12.066;2022-12-29T17:56:32;7.10;99.90
40996;DHT22;26723;57.478;12.066;2022-12-29T17:59:41;7.10;99.90
40996;DHT22;26723;57.478;12.066;2022-12-29T18:02:50;7.10;99.90
40996;DHT22;26723;57.478;12.066;2022-12-29T18:05:59;7.10;99.90
40996;DHT22;26723;57.478;12.066;2022-12-29T18:09:09;7.10;99.90
40996;DHT22;26723;57.478;12.066;2022-12-29T18:12:31;7.00;99.90
40996;DHT22;26723;57.478;12.066;2022-12-29T18:15:40;7.00;99.90
40996;DHT22;26723;57.478;12.066;2022-12-29T18:18:49;7.00;99.90
40996;DHT22;26723;57.478;12.066;2022-12-29T18:21:57;7.00;99.90
40996;DHT22;26723;57.478;12.066;2022-12-29T18:25:20;6.90;99.90
40996;DHT22;26723;57.478;12.066;2022-12-29T18:28:30;6.90;99.90
40996;DHT22;26723;57.478;12.066;2022-12-29T18:31:38;6.90;99.90
40996;DHT22;26723;57.478;12.066;2022-12-29T18:34:47;6.80;99.90
40996;DHT22;26723;57.478;12.066;2022-12-29T18:37:55;6.90;99.90
40996;DHT22;26723;57.478;12.066;2022-12-29T18:41:08;6.80;99.90
40996;DHT22;26723;57.478;12.066;2022-12-29T18:44:20;6.80;99.90
40996;DHT22;26723;57.478;12.066;2022-12-29T18:47:30;6.90;99.90
40996;DHT22;26723;57.478;12.066;2022-12-29T18:50:39;6.80;99.90
40996;DHT22;26723;57.478;12.066;2022-12-29T18:53:47;6.90;99.90
40996;DHT22;26723;57.478;12.066;2022-12-29T18:56:58;6.80;99.90
40996;DHT22;26723;57.478;12.066;2022-12-29T19:00:08;6.90;99.90
40996;DHT22;26723;57.478;12.066;2022-12-29T19:03:17;6.80;99.90
40996;DHT22;26723;57.478;12.066;2022-12-29T19:06:26;6.90;99.90
40996;DHT22;26723;57.478;12.066;2022-12-29T19:09:34;6.90;99.90
40996;DHT22;26723;57.478;12.066;2022-12-29T19:12:44;6.90;99.90
40996;DHT22;26723;57.478;12.066;2022-12-29T19:15:53;6.90;99.90
40996;DHT22;26723;57.478;12.066;2022-12-29T19:19:01;7.00;99.90
40996;DHT22;26723;57.478;12.066;2022-12-29T19:22:15;7.00;99.90
40996;DHT22;26723;57.478;12.066;2022-12-29T19:25:24;7.00;99.90
40996;DHT22;26723;57.478;12.066;2022-12-29T19:28:34;7.00;99.90
40996;DHT22;26723;57.478;12.066;2022-12-29T19:31:43;7.00;99.90
40996;DHT22;26723;57.478;12.066;2022-12-29T19:34:52;7.00;99.90
40996;DHT22;26723;57.478;12.066;2022-12-29T19:38:00;6.90;99.90
40996;DHT22;26723;57.478;12.066;2022-12-29T19:41:09;6.90;99.90
40996;DHT22;26723;57.478;12.066;2022-12-29T19:44:19;6.90;99.90
40996;DHT22;26723;57.478;12.066;2022-12-29T19:47:27;6.90;99.90
40996;DHT22;26723;57.478;12.066;2022-12-29T19:50:38;6.90;99.90
40996;DHT22;26723;57.478;12.066;2022-12-29T19:53:46;6.90;99.90
40996;DHT22;26723;57.478;12.066;2022-12-29T19:56:55;6.90;99.90
40996;DHT22;26723;57.478;12.066;2022-12-29T20:00:06;6.90;99.90
40996;DHT22;26723;57.478;12.066;2022-12-29T20:03:17;6.90;99.90
40996;DHT22;26723;57.478;12.066;2022-12-29T20:06:26;6.90;99.90
40996;DHT22;26723;57.478;12.066;2022-12-29T20:09:34;6.80;99.90
40996;DHT22;26723;57.478;12.066;2022-12-29T20:12:43;6.80;99.90
40996;DHT22;26723;57.478;12.066;2022-12-29T20:15:58;6.80;99.90
40996;DHT22;26723;57.478;12.066;2022-12-29T20:19:06;6.70;99.90
40996;DHT22;26723;57.478;12.066;2022-12-29T20:22:15;6.70;99.90
40996;DHT22;26723;57.478;12.066;2022-12-29T20:25:23;6.60;99.90
40996;DHT22;26723;57.478;12.066;2022-12-29T20:28:52;6.60;99.90
40996;DHT22;26723;57.478;12.066;2022-12-29T20:32:02;6.70;99.90